Time;durP1;ratioP1;P1;durP2;ratioP2;P2;SDS_P1;SDS_P2;PMS_P1;PMS_P2;Temp;Humidity;BMP_temperature;BMP_pressure;BME280_temperature;BME280_humidity;BME280_pressure;Samples;Min_cycle;Max_cycle;Signal;HPM_P1;HPM_P2
2021/09/11 08:51:15;;;;;;;1.77;1.67;;;19.50;99.90;;;;;;5091009;27;20562;-75
2021/09/11 08:53:40;;;;;;;2.38;1.67;;;18.00;99.90;;;;;;5090838;28;20179;-75
2021/09/11 08:56:07;;;;;;;1.92;1.83;;;18.10;99.90;;;;;;5090906;28;20170;-75
2021/09/11 08:58:32;;;;;;;1.50;1.50;;;18.10;99.90;;;;;;5090818;28;20182;-75
2021/09/11 09:01:00;;;;;;;1.80;1.70;;;18.00;99.90;;;;;;5090778;28;20254;-75
2021/09/11 09:03:26;;;;;;;2.17;1.92;;;18.00;99.90;;;;;;5090741;28;20543;-75
2021/09/11 09:05:52;;;;;;;3.38;1.85;;;18.10;99.90;;;;;;5089296;28;20225;-75
2021/09/11 09:08:30;;;;;;;3.80;1.55;;;18.10;99.90;;;;;;5090699;28;20720;-75
2021/09/11 09:11:12;;;;;;;1.30;1.30;;;18.30;99.90;;;;;;5090497;28;20249;-75
2021/09/11 09:13:49;;;;;;;1.77;1.67;;;18.30;99.90;;;;;;5090516;28;20168;-75
2021/09/11 09:16:15;;;;;;;2.72;1.83;;;18.30;99.90;;;;;;5090528;28;20258;-75
2021/09/11 09:18:40;;;;;;;3.25;1.50;;;18.30;99.90;;;;;;5090445;28;20649;-75
2021/09/11 09:21:22;;;;;;;2.45;1.85;;;18.40;99.90;;;;;;5090396;28;20655;-75
2021/09/11 09:23:57;;;;;;;1.40;1.40;;;18.50;99.90;;;;;;5090365;28;20735;-75
2021/09/11 09:26:23;;;;;;;3.33;1.90;;;18.50;99.90;;;;;;5090334;28;20640;-75
2021/09/11 09:29:10;;;;;;;2.05;1.80;;;18.50;99.90;;;;;;5090057;28;20187;-75
2021/09/11 09:31:36;;;;;;;1.70;1.60;;;18.60;99.90;;;;;;5090211;28;20191;-75
2021/09/11 09:34:03;;;;;;;3.28;1.80;;;18.60;99.90;;;;;;5090146;28;20160;-75
2021/09/11 09:36:40;;;;;;;2.00;1.90;;;18.60;99.90;;;;;;5090171;28;20517;-75
2021/09/11 09:39:11;;;;;;;2.97;2.00;;;18.50;99.90;;;;;;5090049;28;20225;-75
2021/09/11 09:41:50;;;;;;;1.75;1.65;;;18.60;99.90;;;;;;5089983;28;20167;-75
2021/09/11 09:44:19;;;;;;;4.65;2.83;;;18.70;99.90;;;;;;5090009;28;20167;-75
2021/09/11 09:46:46;;;;;;;1.80;1.70;;;18.80;99.90;;;;;;5089908;28;20160;-75
2021/09/11 09:49:16;;;;;;;2.25;1.70;;;18.90;99.90;;;;;;5089546;28;20240;-75
2021/09/11 09:51:43;;;;;;;2.03;1.52;;;18.90;99.90;;;;;;5089832;28;20210;-75
2021/09/11 09:54:09;;;;;;;3.13;2.08;;;18.90;99.90;;;;;;5089735;28;20616;-75
2021/09/11 09:56:35;;;;;;;2.38;2.03;;;18.90;99.90;;;;;;5089738;28;20174;-75
2021/09/11 09:59:01;;;;;;;1.60;1.50;;;18.90;99.90;;;;;;5089604;28;20218;-75
2021/09/11 10:01:28;;;;;;;4.18;1.65;;;18.90;99.90;;;;;;5082723;28;20298;-75
2021/09/11 10:03:54;;;;;;;1.85;1.75;;;18.90;99.90;;;;;;5074795;28;20531;-75
2021/09/11 10:06:31;;;;;;;2.20;2.00;;;19.00;99.90;;;;;;5074716;28;20167;-75
2021/09/11 10:09:06;;;;;;;2.42;1.80;;;19.00;99.90;;;;;;5075947;28;20625;-75
2021/09/11 10:11:39;;;;;;;2.38;2.05;;;19.10;99.90;;;;;;5076050;28;20341;-75
2021/09/11 10:14:11;;;;;;;2.25;2.13;;;19.10;99.90;;;;;;5074667;28;20176;-75
2021/09/11 10:16:39;;;;;;;2.92;1.90;;;19.10;99.90;;;;;;5075876;28;20168;-75
2021/09/11 10:19:19;;;;;;;3.85;2.03;;;19.10;99.90;;;;;;5075769;28;20168;-75
2021/09/11 10:21:49;;;;;;;2.63;2.00;;;19.30;99.90;;;;;;5075788;28;20168;-75
2021/09/11 10:24:24;;;;;;;2.15;2.05;;;19.40;99.90;;;;;;5075721;28;20246;-75
2021/09/11 10:26:53;;;;;;;1.73;1.63;;;19.50;99.90;;;;;;5075673;28;20159;-75
2021/09/11 10:29:44;;;;;;;1.80;1.70;;;19.60;99.90;;;;;;5075449;28;20687;-76
2021/09/11 10:32:36;;;;;;;1.90;1.75;;;19.60;99.90;;;;;;5075637;28;20164;-76
2021/09/11 10:35:11;;;;;;;3.45;1.65;;;19.70;99.90;;;;;;5075507;28;20167;-75
2021/09/11 10:37:37;;;;;;;2.42;1.75;;;19.70;99.90;;;;;;5075428;28;20159;-75
2021/09/11 10:40:19;;;;;;;1.90;1.80;;;19.80;99.90;;;;;;5075440;28;20172;-75
2021/09/11 10:43:04;;;;;;;2.10;1.90;;;19.80;99.90;;;;;;5075379;28;20168;-75
2021/09/11 10:45:41;;;;;;;2.33;2.22;;;19.90;99.90;;;;;;5075396;28;20203;-76
2021/09/11 10:48:30;;;;;;;2.22;2.13;;;20.00;99.90;;;;;;5075225;28;20251;-75
2021/09/11 10:50:56;;;;;;;3.45;2.17;;;20.10;99.90;;;;;;5074939;28;20211;-75
2021/09/11 10:53:23;;;;;;;5.72;2.40;;;20.10;99.90;;;;;;5075173;28;20645;-75
2021/09/11 10:55:49;;;;;;;4.55;2.50;;;20.00;99.90;;;;;;5075112;28;20164;-75
2021/09/11 10:58:24;;;;;;;2.60;2.40;;;19.90;99.90;;;;;;5075071;28;20168;-75
2021/09/11 11:00:57;;;;;;;2.60;2.40;;;20.10;99.90;;;;;;5074983;28;20625;-75
2021/09/11 11:03:23;;;;;;;2.33;2.13;;;20.10;99.90;;;;;;5074876;28;20292;-75
2021/09/11 11:06:03;;;;;;;2.08;1.95;;;20.10;99.90;;;;;;5074917;28;20206;-75
2021/09/11 11:08:30;;;;;;;2.30;2.20;;;20.10;99.90;;;;;;5074853;28;20170;-76
2021/09/11 11:10:57;;;;;;;3.30;2.53;;;20.20;99.90;;;;;;5074694;28;20188;-76
2021/09/11 11:13:23;;;;;;;3.10;2.90;;;20.10;99.90;;;;;;5073821;28;20167;-76
2021/09/11 11:15:56;;;;;;;2.58;2.47;;;20.10;99.90;;;;;;5074580;28;20214;-75
2021/09/11 11:18:26;;;;;;;4.00;2.78;;;20.10;99.90;;;;;;5074720;28;20163;-75
2021/09/11 11:20:52;;;;;;;3.25;2.90;;;20.00;99.90;;;;;;5073396;28;20228;-75
2021/09/11 11:23:18;;;;;;;2.75;2.65;;;20.00;99.90;;;;;;5074584;28;20175;-76
2021/09/11 11:25:43;;;;;;;2.90;2.70;;;20.00;99.90;;;;;;5074534;28;20168;-75
2021/09/11 11:28:11;;;;;;;2.55;2.35;;;20.00;99.90;;;;;;5074385;28;20191;-75
2021/09/11 11:30:39;;;;;;;3.13;2.60;;;20.10;99.90;;;;;;5073065;28;20200;-75
2021/09/11 11:33:05;;;;;;;3.40;3.10;;;20.10;99.90;;;;;;5074320;28;20221;-76
2021/09/11 11:35:32;;;;;;;3.13;2.92;;;20.20;99.90;;;;;;5074407;28;20160;-76
2021/09/11 11:37:58;;;;;;;3.63;2.95;;;20.20;99.90;;;;;;5074193;28;20175;-76
2021/09/11 11:40:25;;;;;;;3.33;3.08;;;20.30;99.90;;;;;;5074212;28;20270;-76
2021/09/11 11:42:52;;;;;;;3.15;2.92;;;20.20;99.90;;;;;;5074163;28;20176;-75
2021/09/11 11:45:23;;;;;;;3.40;2.70;;;20.20;99.90;;;;;;5074112;28;20171;-74
2021/09/11 11:48:04;;;;;;;5.88;3.28;;;20.10;99.90;;;;;;5074020;28;20176;-74
2021/09/11 11:50:33;;;;;;;6.55;2.83;;;20.10;99.90;;;;;;5072348;28;20628;-76
2021/09/11 11:53:05;;;;;;;2.92;2.72;;;20.10;99.90;;;;;;5073823;28;20233;-76
2021/09/11 11:55:34;;;;;;;2.72;2.63;;;20.10;99.90;;;;;;5074091;28;20186;-75
2021/09/11 11:58:15;;;;;;;3.72;3.42;;;20.10;99.90;;;;;;5073982;28;20682;-75
2021/09/11 12:00:50;;;;;;;2.97;2.78;;;20.10;99.90;;;;;;5074094;28;20172;-75
2021/09/11 12:03:34;;;;;;;3.53;3.20;;;20.10;99.90;;;;;;5073966;28;20163;-76
2021/09/11 12:06:06;;;;;;;3.58;3.08;;;20.10;99.90;;;;;;5073886;28;20171;-76
2021/09/11 12:08:36;;;;;;;3.08;2.88;;;20.20;99.90;;;;;;5073968;28;20622;-75
2021/09/11 12:11:03;;;;;;;2.97;2.78;;;20.20;99.90;;;;;;5073765;28;20653;-75
2021/09/11 12:13:30;;;;;;;2.90;2.70;;;20.20;99.90;;;;;;5073812;28;20171;-75
2021/09/11 12:15:56;;;;;;;2.95;2.70;;;20.20;99.90;;;;;;5073848;28;20200;-75
2021/09/11 12:18:22;;;;;;;2.95;2.75;;;20.30;99.90;;;;;;5073856;28;20164;-76
2021/09/11 12:20:52;;;;;;;4.10;2.60;;;20.50;99.90;;;;;;5073761;28;20174;-75
2021/09/11 12:23:20;;;;;;;2.75;2.55;;;20.60;99.90;;;;;;5073667;28;20255;-76
2021/09/11 12:26:06;;;;;;;3.53;2.80;;;20.60;99.90;;;;;;5073415;28;20181;-76
2021/09/11 12:28:47;;;;;;;3.38;3.10;;;20.60;99.90;;;;;;5073513;28;20549;-75
2021/09/11 12:31:18;;;;;;;4.20;2.83;;;20.50;99.90;;;;;;5073377;28;20196;-76
2021/09/11 12:33:51;;;;;;;4.75;3.30;;;20.30;99.90;;;;;;5072505;28;20167;-76
2021/09/11 12:36:24;;;;;;;2.90;2.33;;;20.10;99.90;;;;;;5073420;28;20164;-76
2021/09/11 12:38:52;;;;;;;3.15;2.88;;;20.00;99.90;;;;;;5073645;28;20175;-76
2021/09/11 12:41:18;;;;;;;3.00;2.80;;;20.00;99.90;;;;;;5073583;28;20254;-76
2021/09/11 12:43:44;;;;;;;2.88;2.67;;;20.10;99.90;;;;;;5073477;28;20255;-75
2021/09/11 12:46:14;;;;;;;5.55;3.22;;;20.20;99.90;;;;;;5073382;28;20259;-76
2021/09/11 12:48:41;;;;;;;3.20;2.90;;;20.40;99.90;;;;;;5073346;28;20251;-76
2021/09/11 12:51:07;;;;;;;3.17;2.95;;;20.80;99.90;;;;;;5073221;28;20223;-76
2021/09/11 12:53:34;;;;;;;2.95;2.80;;;21.00;99.90;;;;;;5073348;28;20633;-75
2021/09/11 12:56:00;;;;;;;2.72;2.63;;;20.90;99.90;;;;;;5073562;28;20251;-76
2021/09/11 12:58:27;;;;;;;2.55;2.45;;;20.90;99.90;;;;;;5073453;28;20167;-75
2021/09/11 13:00:53;;;;;;;2.50;2.40;;;20.90;99.90;;;;;;5073298;28;20175;-75
2021/09/11 13:03:18;;;;;;;2.88;2.78;;;20.80;99.90;;;;;;5073250;28;20171;-75
2021/09/11 13:05:44;;;;;;;2.63;2.50;;;20.60;99.90;;;;;;5073437;28;20301;-75
2021/09/11 13:08:10;;;;;;;2.78;2.63;;;20.50;99.90;;;;;;5073481;28;20528;-75
2021/09/11 13:10:35;;;;;;;4.88;2.85;;;20.50;99.90;;;;;;5073151;28;20235;-75
2021/09/11 13:13:01;;;;;;;5.75;2.90;;;20.30;99.90;;;;;;5073197;28;20171;-76
2021/09/11 13:15:27;;;;;;;2.72;2.50;;;20.20;99.90;;;;;;5073125;28;20175;-76
2021/09/11 13:17:52;;;;;;;3.28;2.42;;;20.10;99.90;;;;;;5073118;28;20255;-76
2021/09/11 13:20:18;;;;;;;3.00;2.80;;;20.00;99.90;;;;;;5073098;28;20168;-76
2021/09/11 13:22:44;;;;;;;3.00;2.75;;;19.90;99.90;;;;;;5073236;28;20172;-75
2021/09/11 13:25:09;;;;;;;3.97;3.78;;;19.90;99.90;;;;;;5073028;28;20168;-75
2021/09/11 13:27:35;;;;;;;3.35;3.05;;;19.90;99.90;;;;;;5072828;28;20192;-75
2021/09/11 13:30:00;;;;;;;3.35;3.05;;;19.80;99.90;;;;;;5071525;28;20196;-76
2021/09/11 13:32:26;;;;;;;3.67;3.08;;;19.80;99.90;;;;;;5073053;28;20199;-76
2021/09/11 13:34:52;;;;;;;2.70;2.53;;;19.80;99.90;;;;;;5072854;28;20198;-76
2021/09/11 13:37:17;;;;;;;3.20;3.00;;;19.70;99.90;;;;;;5075460;28;20186;-75
2021/09/11 13:39:43;;;;;;;3.53;2.60;;;19.70;99.90;;;;;;5076621;28;20526;-76
2021/09/11 13:42:08;;;;;;;2.85;2.60;;;19.70;99.90;;;;;;5076603;28;20172;-76
2021/09/11 13:44:34;;;;;;;3.30;3.10;;;19.70;99.90;;;;;;5076545;28;20172;-76
2021/09/11 13:46:59;;;;;;;3.50;3.30;;;19.70;99.90;;;;;;5076370;28;20667;-76
2021/09/11 13:49:25;;;;;;;3.95;3.10;;;19.70;99.90;;;;;;5076174;28;20227;-75
2021/09/11 13:51:51;;;;;;;3.53;3.03;;;19.60;99.90;;;;;;5076423;28;20554;-76
2021/09/11 14:16:39;;;;;;;3.83;3.05;;;21.40;99.90;;;;;;5132094;27;20566;-75
2021/09/11 14:19:04;;;;;;;4.70;3.42;;;19.40;99.90;;;;;;5130812;28;20592;-74
2021/09/11 14:21:31;;;;;;;3.45;3.35;;;19.40;99.90;;;;;;5132114;28;20212;-76
2021/09/11 14:23:57;;;;;;;4.22;3.90;;;19.40;99.90;;;;;;5130815;28;20166;-76
2021/09/11 14:26:23;;;;;;;3.50;3.20;;;19.50;99.90;;;;;;5132180;28;20170;-76
2021/09/11 14:28:48;;;;;;;3.25;2.95;;;19.50;99.90;;;;;;5131911;28;20567;-75
2021/09/11 14:31:14;;;;;;;4.03;3.28;;;19.50;99.90;;;;;;5131810;28;20252;-76
2021/09/11 14:33:40;;;;;;;3.25;3.00;;;19.70;99.90;;;;;;5131847;28;20520;-76
2021/09/11 14:36:05;;;;;;;3.72;3.38;;;19.90;99.90;;;;;;5130495;28;20592;-75
2021/09/11 14:38:31;;;;;;;3.22;3.08;;;20.00;99.90;;;;;;5130381;28;20170;-76
2021/09/11 14:40:57;;;;;;;5.88;3.45;;;20.30;99.90;;;;;;5131600;28;20162;-75
2021/09/11 14:43:23;;;;;;;2.83;2.70;;;20.50;99.90;;;;;;5131681;28;20174;-76
2021/09/11 14:45:49;;;;;;;2.85;2.45;;;20.60;99.90;;;;;;5131679;28;20170;-76
2021/09/11 14:48:15;;;;;;;3.47;2.40;;;20.60;99.90;;;;;;5131544;28;20170;-75
2021/09/11 14:50:40;;;;;;;3.42;3.10;;;20.70;99.90;;;;;;5131491;28;20177;-76
2021/09/11 14:53:06;;;;;;;5.03;2.97;;;20.70;99.90;;;;;;5131376;28;20524;-76
2021/09/11 14:55:32;;;;;;;3.42;2.60;;;20.70;99.90;;;;;;5131199;28;20750;-76
2021/09/11 14:57:58;;;;;;;3.05;2.50;;;20.60;99.90;;;;;;5131397;28;20173;-76
2021/09/11 15:00:24;;;;;;;2.90;2.70;;;20.60;99.90;;;;;;5131286;28;20186;-76
2021/09/11 15:02:49;;;;;;;4.60;3.78;;;20.60;99.90;;;;;;5131254;28;20641;-75
2021/09/11 15:05:15;;;;;;;3.30;3.00;;;20.50;99.90;;;;;;5131154;28;20215;-76
2021/09/11 15:07:41;;;;;;;5.20;2.45;;;20.40;99.90;;;;;;5131005;28;20252;-75
2021/09/11 15:10:07;;;;;;;3.05;2.85;;;20.30;99.90;;;;;;5131027;28;20166;-76
2021/09/11 15:12:33;;;;;;;2.88;2.67;;;20.30;99.90;;;;;;5129398;28;20202;-76
2021/09/11 15:14:59;;;;;;;3.33;3.00;;;20.10;99.90;;;;;;5130771;28;20267;-77
2021/09/11 15:17:27;;;;;;;2.75;2.50;;;20.10;99.90;;;;;;5131021;28;20641;-76
2021/09/11 15:19:52;;;;;;;3.08;2.83;;;20.10;99.90;;;;;;5130852;28;20563;-75
2021/09/11 15:22:18;;;;;;;3.70;3.38;;;20.10;99.90;;;;;;5130814;28;20246;-75
2021/09/11 15:24:45;;;;;;;5.55;2.60;;;20.10;99.90;;;;;;5130720;28;20166;-76
2021/09/11 15:27:11;;;;;;;2.97;2.88;;;20.20;99.90;;;;;;5121723;28;20177;-76
2021/09/11 15:29:37;;;;;;;3.45;3.15;;;20.30;99.90;;;;;;5117056;28;20166;-76
2021/09/11 15:32:03;;;;;;;4.60;2.90;;;20.30;99.90;;;;;;5117004;28;20171;-76
2021/09/11 15:34:28;;;;;;;2.70;2.50;;;20.30;99.90;;;;;;5116741;28;20171;-76
2021/09/11 15:36:54;;;;;;;3.20;3.10;;;20.30;99.90;;;;;;5116852;28;20538;-76
2021/09/11 15:39:21;;;;;;;3.00;2.80;;;20.30;99.90;;;;;;5116738;28;20166;-76
2021/09/11 15:41:47;;;;;;;4.65;2.85;;;20.20;99.90;;;;;;5116624;28;20171;-76
2021/09/11 15:44:14;;;;;;;3.05;2.75;;;20.20;99.90;;;;;;5116636;28;20292;-76
2021/09/11 15:46:40;;;;;;;3.13;2.70;;;20.20;99.90;;;;;;5116669;28;20652;-75
2021/09/11 15:49:06;;;;;;;3.20;2.92;;;20.10;99.90;;;;;;5116747;28;20508;-74
2021/09/11 15:51:32;;;;;;;4.25;2.88;;;20.10;99.90;;;;;;5116669;28;20548;-74
2021/09/11 15:53:58;;;;;;;4.32;3.10;;;20.00;99.90;;;;;;5116435;28;20268;-74
2021/09/11 15:56:24;;;;;;;3.50;3.25;;;19.90;99.90;;;;;;5116148;28;20187;-74
2021/09/11 15:58:49;;;;;;;3.50;3.20;;;19.90;99.90;;;;;;5116457;28;20166;-73
2021/09/11 16:01:15;;;;;;;2.97;2.85;;;19.70;99.90;;;;;;5116169;28;20210;-74
2021/09/11 16:03:40;;;;;;;3.55;3.05;;;19.60;99.90;;;;;;5116279;28;20163;-73
2021/09/11 16:06:06;;;;;;;4.20;4.00;;;19.50;99.90;;;;;;5116201;28;20177;-73
2021/09/11 16:08:32;;;;;;;3.58;3.22;;;19.50;99.90;;;;;;5116328;28;20178;-74
2021/09/11 16:25:48;;;;;;;3.78;3.45;;;19.30;99.90;;;;;;5132121;27;20546;-75
2021/09/11 16:28:13;;;;;;;5.07;3.17;;;19.20;99.90;;;;;;5132094;28;20201;-75
2021/09/11 16:30:39;;;;;;;3.33;3.13;;;19.10;99.90;;;;;;5131972;28;20249;-75
2021/09/11 16:33:04;;;;;;;3.25;3.05;;;19.20;99.90;;;;;;5130754;28;20238;-75
2021/09/11 16:35:31;;;;;;;3.15;2.95;;;19.20;99.90;;;;;;5131818;28;20173;-75
2021/09/11 16:37:57;;;;;;;3.67;2.72;;;19.10;99.90;;;;;;5131717;28;20162;-75
2021/09/11 16:40:22;;;;;;;3.00;2.80;;;19.10;99.90;;;;;;5131834;28;20515;-76
